createdAt,value
2023-03-07T00:01:51.557Z,5.64
2023-03-07T00:06:56.866Z,5.17
2023-03-07T00:11:59.598Z,5.54
2023-03-07T00:17:03.986Z,4.88
2023-03-07T00:22:06.784Z,4.98
2023-03-07T00:27:10.273Z,5.51
2023-03-07T00:32:14.818Z,5.64
2023-03-07T00:37:17.578Z,5.12
2023-03-07T00:42:20.222Z,5.41
2023-03-07T00:47:24.255Z,5.79
2023-03-07T00:52:27.181Z,5.36
2023-03-07T00:57:30.797Z,6.10
2023-03-07T01:02:35.544Z,6.13
2023-03-07T01:07:38.237Z,6.14
2023-03-07T01:12:43.595Z,6.18
2023-03-07T01:17:50.435Z,6.12
2023-03-07T01:22:55.393Z,6.05
2023-03-07T01:27:58.557Z,5.98
2023-03-07T01:33:10.652Z,5.60
2023-03-07T01:38:14.430Z,5.54
2023-03-07T01:43:27.287Z,5.92
2023-03-07T01:48:40.286Z,5.97
2023-03-07T01:53:43.169Z,5.69
2023-03-07T01:58:47.893Z,5.82
2023-03-07T02:03:55.890Z,6.04
2023-03-07T02:09:01.720Z,6.10
2023-03-07T02:14:04.444Z,5.69
2023-03-07T02:19:23.175Z,4.74
2023-03-07T02:24:33.229Z,4.75
2023-03-07T02:29:37.437Z,5.18
2023-03-07T02:34:40.265Z,4.50
2023-03-07T02:39:49.003Z,5.08
2023-03-07T02:44:59.091Z,5.26
2023-03-07T02:50:03.788Z,4.90
2023-03-07T02:55:08.833Z,5.44
2023-03-07T03:00:17.531Z,5.39
2023-03-07T03:05:21.053Z,4.64
2023-03-07T03:10:23.823Z,5.24
2023-03-07T03:15:28.126Z,5.26
2023-03-07T03:20:31.060Z,5.18
2023-03-07T03:25:34.429Z,5.30
2023-03-07T03:37:28.247Z,4.43
2023-03-07T03:42:31.674Z,5.25
2023-03-07T03:47:34.910Z,5.54
2023-03-07T03:52:39.223Z,5.10
2023-03-07T03:57:42.470Z,5.49
2023-03-07T04:02:45.803Z,5.43
2023-03-07T04:07:53.741Z,5.76
2023-03-07T04:12:56.490Z,5.77
2023-03-07T04:17:59.731Z,5.63
2023-03-07T04:23:04.103Z,5.95
2023-03-07T04:28:07.339Z,5.61
2023-03-07T04:33:24.439Z,6.05
2023-03-07T04:38:29.068Z,5.17
2023-03-07T04:43:32.130Z,5.62
2023-03-07T04:48:36.606Z,4.86
2023-03-07T04:53:41.384Z,6.19
2023-03-07T04:58:45.795Z,5.47
2023-03-07T05:03:49.309Z,6.03
2023-03-07T05:08:55.884Z,5.40
2023-03-07T05:13:58.691Z,6.20
2023-03-07T05:19:06.074Z,4.53
2023-03-07T05:24:11.176Z,6.15
2023-03-07T05:29:22.221Z,6.16
2023-03-07T05:34:25.131Z,5.50
2023-03-07T05:39:30.189Z,5.49
2023-03-07T05:44:34.167Z,5.67
2023-03-07T05:49:40.963Z,5.80
2023-03-07T05:54:46.722Z,5.11
2023-03-07T05:59:49.613Z,5.03
2023-03-07T06:04:52.457Z,5.43
2023-03-07T06:09:57.596Z,5.61
2023-03-07T06:15:00.555Z,5.23
2023-03-07T06:20:04.127Z,5.59
2023-03-07T06:25:10.568Z,5.20
2023-03-07T06:30:14.822Z,5.28
2023-03-07T06:35:17.871Z,4.98
2023-03-07T06:40:22.860Z,5.28
2023-03-07T06:45:26.548Z,4.95
2023-03-07T06:50:35.206Z,5.60
2023-03-07T06:55:40.809Z,5.82
2023-03-07T07:00:46.461Z,5.69
2023-03-07T07:05:49.425Z,5.47
2023-03-07T07:10:53.788Z,5.44
2023-03-07T07:15:56.627Z,5.81
2023-03-07T07:21:00.708Z,4.64
2023-03-07T07:26:05.159Z,5.84
2023-03-07T07:31:09.130Z,6.15
2023-03-07T07:36:13.185Z,6.20
2023-03-07T07:41:18.147Z,6.25
2023-03-07T07:46:21.433Z,6.23
2023-03-07T07:51:24.721Z,6.25
2023-03-07T07:56:30.338Z,6.23
2023-03-07T08:01:33.068Z,4.99
2023-03-07T08:06:35.882Z,5.67
2023-03-07T08:11:43.397Z,4.82
2023-03-07T08:17:00.490Z,4.91
2023-03-07T08:22:05.939Z,6.07
2023-03-07T08:27:10.176Z,6.05
2023-03-07T08:32:15.359Z,5.30
2023-03-07T08:37:18.219Z,4.93
2023-03-07T08:42:24.941Z,5.52
2023-03-07T08:47:27.727Z,5.88
2023-03-07T08:52:51.769Z,4.92
2023-03-07T08:58:00.459Z,3.80
2023-03-07T09:03:03.707Z,4.52
2023-03-07T09:08:08.477Z,4.35
2023-03-07T09:13:13.987Z,4.01
2023-03-07T09:18:17.085Z,5.52
2023-03-07T09:23:20.716Z,4.96
2023-03-07T09:28:24.736Z,5.51
2023-03-07T09:33:27.434Z,4.97
2023-03-07T09:38:30.191Z,3.86
2023-03-07T09:43:44.925Z,5.33
2023-03-07T09:49:20.728Z,5.44
2023-03-07T09:54:28.760Z,5.56
2023-03-07T09:59:36.790Z,5.68
2023-03-07T10:04:48.947Z,5.79
2023-03-07T10:09:54.679Z,5.77
2023-03-07T10:15:16.787Z,5.83
2023-03-07T10:20:26.223Z,5.80
2023-03-07T10:25:33.902Z,5.84
2023-03-07T10:30:38.134Z,5.39
2023-03-07T10:35:43.661Z,4.18
2023-03-07T10:40:51.648Z,5.25
2023-03-07T10:46:00.622Z,4.01
2023-03-07T10:51:14.955Z,5.50
2023-03-07T10:56:19.938Z,4.05
2023-03-07T11:01:25.379Z,5.23
2023-03-07T11:06:33.313Z,4.32
2023-03-07T11:11:38.010Z,4.37
2023-03-07T11:16:43.965Z,5.27
2023-03-07T11:30:08.787Z,5.09
2023-03-07T11:44:24.043Z,4.80
2023-03-07T11:58:12.018Z,4.18
2023-03-07T12:25:47.684Z,3.54
2023-03-07T12:38:04.097Z,3.68
2023-03-07T12:43:17.498Z,4.65
2023-03-07T12:48:36.399Z,4.36
2023-03-07T12:53:53.685Z,3.21
2023-03-07T12:59:02.545Z,1.60
2023-03-07T13:04:17.092Z,4.44
2023-03-07T13:09:27.230Z,5.14
2023-03-07T13:14:40.650Z,5.21
2023-03-07T13:19:44.688Z,4.75
2023-03-07T13:24:49.701Z,3.76
2023-03-07T13:30:18.090Z,4.64
2023-03-07T13:35:55.135Z,5.20
2023-03-07T13:41:01.916Z,4.58
2023-03-07T13:46:06.628Z,3.72
2023-03-07T13:51:10.490Z,4.90
2023-03-07T13:56:26.292Z,3.53
2023-03-07T14:01:33.931Z,3.42
2023-03-07T14:06:40.707Z,4.10
2023-03-07T14:11:53.157Z,4.08
2023-03-07T14:17:23.061Z,1.78
2023-03-07T14:22:55.297Z,4.71
2023-03-07T14:28:19.221Z,1.79
2023-03-07T14:33:22.213Z,3.81
2023-03-07T14:38:33.496Z,4.58
2023-03-07T14:43:51.438Z,3.69
2023-03-07T14:49:11.570Z,5.08
2023-03-07T14:54:21.172Z,2.96
2023-03-07T14:59:29.307Z,3.99
2023-03-07T15:04:37.271Z,4.75
2023-03-07T15:09:41.111Z,4.45
2023-03-07T15:14:48.750Z,5.26
2023-03-07T15:27:40.841Z,2.54
2023-03-07T15:33:26.220Z,4.54
2023-03-07T15:46:33.424Z,5.46
2023-03-07T15:52:08.767Z,4.73
2023-03-07T15:57:21.963Z,3.16
2023-03-07T16:02:54.488Z,4.52
2023-03-07T16:08:00.531Z,3.27
2023-03-07T16:13:08.194Z,2.25
2023-03-07T16:18:19.666Z,2.73
2023-03-07T16:23:25.352Z,3.08
2023-03-07T16:28:31.488Z,4.65
2023-03-07T16:33:36.376Z,4.40
2023-03-07T16:38:44.736Z,3.26
2023-03-07T16:44:20.860Z,4.67
2023-03-07T16:49:37.187Z,2.38
2023-03-07T16:54:43.541Z,3.22
2023-03-07T17:00:10.406Z,1.55
2023-03-07T17:05:21.538Z,4.76
2023-03-07T17:10:26.342Z,3.90
2023-03-07T17:15:33.030Z,4.60
2023-03-07T17:20:38.817Z,4.29
2023-03-07T17:25:51.197Z,4.47
2023-03-07T17:30:55.882Z,2.83
2023-03-07T17:36:00.883Z,3.30
2023-03-07T17:41:03.703Z,3.89
2023-03-07T17:46:14.814Z,4.76
2023-03-07T17:51:17.492Z,4.68
2023-03-07T17:56:20.417Z,4.78
2023-03-07T18:01:37.349Z,4.06
2023-03-07T18:06:41.128Z,4.76
2023-03-07T18:11:46.569Z,4.38
2023-03-07T18:16:51.015Z,3.94
2023-03-07T18:22:06.366Z,2.95
2023-03-07T18:27:14.433Z,4.02
2023-03-07T18:32:19.558Z,3.73
2023-03-07T18:37:22.613Z,2.09
2023-03-07T18:42:30.931Z,3.70
2023-03-07T18:47:35.235Z,3.90
2023-03-07T18:52:38.502Z,2.45
2023-03-07T18:57:41.477Z,3.67
2023-03-07T19:02:46.138Z,2.52
2023-03-07T19:07:55.114Z,3.80
2023-03-07T19:13:11.082Z,2.08
2023-03-07T19:18:16.786Z,3.97
2023-03-07T19:23:21.254Z,4.01
2023-03-07T19:28:24.713Z,3.73
2023-03-07T19:33:38.232Z,3.70
2023-03-07T19:38:41.660Z,2.66
2023-03-07T19:43:45.164Z,3.26
2023-03-07T19:48:50.403Z,4.10
2023-03-07T19:53:57.007Z,3.80
2023-03-07T19:59:03.424Z,2.80
2023-03-07T20:04:11.043Z,4.00
2023-03-07T20:09:19.124Z,1.27
2023-03-07T20:14:24.104Z,3.36
2023-03-07T20:19:32.544Z,2.95
2023-03-07T20:24:42.686Z,2.15
2023-03-07T20:29:49.496Z,1.53
2023-03-07T20:34:54.829Z,3.70
2023-03-07T20:39:57.757Z,2.15
2023-03-07T20:45:13.392Z,-0.62
2023-03-07T20:50:18.224Z,1.05
2023-03-07T20:55:32.084Z,2.81
2023-03-07T21:00:42.478Z,2.40
2023-03-07T21:05:48.603Z,2.21
2023-03-07T21:11:01.765Z,1.36
2023-03-07T21:16:10.318Z,2.19
2023-03-07T21:35:15.460Z,2.48
2023-03-07T21:40:34.216Z,1.67
2023-03-07T21:46:18.309Z,-0.32
2023-03-07T21:58:53.087Z,2.26
2023-03-07T22:04:18.593Z,-0.22
2023-03-07T22:09:21.817Z,0.85
2023-03-07T22:14:27.249Z,3.25
2023-03-07T22:19:29.974Z,3.13
2023-03-07T22:24:33.478Z,3.18
2023-03-07T22:29:38.788Z,2.31
2023-03-07T22:34:47.478Z,2.24
2023-03-07T22:39:50.689Z,1.61
2023-03-07T22:44:55.459Z,2.71
2023-03-07T22:50:00.699Z,2.53
2023-03-07T22:55:03.505Z,1.31
2023-03-07T23:00:09.288Z,2.31
2023-03-07T23:05:14.237Z,2.91
2023-03-07T23:10:18.663Z,3.11
2023-03-07T23:22:14.837Z,1.80
2023-03-07T23:27:17.615Z,2.15
2023-03-07T23:32:20.645Z,2.77
2023-03-07T23:37:24.885Z,2.78
2023-03-07T23:42:29.000Z,3.14
2023-03-07T23:47:31.916Z,2.51
2023-03-07T23:52:36.127Z,2.01
2023-03-07T23:57:40.536Z,3.23
